createdAt,value
2023-02-14T00:01:10.626Z,102810.72
2023-02-14T00:03:39.417Z,102814.13
2023-02-14T00:06:07.960Z,102815.09
2023-02-14T00:08:35.791Z,102808.50
2023-02-14T00:11:04.309Z,102810.88
2023-02-14T00:13:31.674Z,102808.13
2023-02-14T00:15:59.037Z,102811.72
2023-02-14T00:18:45.386Z,102813.13
2023-02-14T00:21:12.717Z,102808.13
2023-02-14T00:23:40.074Z,102816.00
2023-02-14T00:26:14.193Z,102808.00
2023-02-14T00:28:43.398Z,102809.34
2023-02-14T00:31:11.151Z,102803.44
2023-02-14T00:33:38.572Z,102807.28
2023-02-14T00:36:07.533Z,102804.56
2023-02-14T00:38:35.238Z,102806.53
2023-02-14T00:41:03.210Z,102792.81
2023-02-14T00:43:30.796Z,102793.47
2023-02-14T00:45:58.106Z,102789.78
2023-02-14T00:48:25.660Z,102790.63
2023-02-14T00:50:52.986Z,102792.34
2023-02-14T00:53:20.501Z,102780.38
2023-02-14T00:55:47.848Z,102778.13
2023-02-14T00:58:15.564Z,102781.81
2023-02-14T01:00:42.885Z,102782.97
2023-02-14T01:03:10.246Z,102782.13
2023-02-14T01:05:37.512Z,102781.28
2023-02-14T01:08:05.419Z,102779.28
2023-02-14T01:10:32.695Z,102775.31
2023-02-14T01:13:00.004Z,102771.34
2023-02-14T01:15:28.718Z,102775.31
2023-02-14T01:17:56.145Z,102773.41
2023-02-14T01:20:23.376Z,102771.78
2023-02-14T01:22:50.646Z,102772.38
2023-02-14T01:25:18.163Z,102773.47
2023-02-14T01:27:45.501Z,102770.63
2023-02-14T01:30:14.551Z,102773.47
2023-02-14T01:32:42.474Z,102779.63
2023-02-14T01:35:10.467Z,102777.09
2023-02-14T01:37:37.797Z,102775.81
2023-02-14T01:40:08.332Z,102779.44
2023-02-14T01:42:36.246Z,102778.44
2023-02-14T01:45:08.931Z,102787.13
2023-02-14T01:47:39.277Z,102782.13
2023-02-14T01:50:13.885Z,102785.84
2023-02-14T01:52:47.965Z,102783.16
2023-02-14T01:55:28.612Z,102775.16
2023-02-14T01:58:01.542Z,102778.16
2023-02-14T02:00:47.594Z,102779.44
2023-02-14T02:03:16.808Z,102775.41
2023-02-14T02:05:52.585Z,102768.13
2023-02-14T02:08:20.414Z,102776.50
2023-02-14T02:10:47.616Z,102774.25
2023-02-14T02:13:18.047Z,102775.22
2023-02-14T02:16:03.355Z,102777.59
2023-02-14T02:19:17.275Z,102770.06
2023-02-14T02:21:59.680Z,102773.06
2023-02-14T02:24:30.003Z,102763.84
2023-02-14T02:27:22.055Z,102767.31
2023-02-14T02:30:25.152Z,102769.72
2023-02-14T02:32:53.665Z,102773.44
2023-02-14T02:35:42.015Z,102779.03
2023-02-14T02:38:36.893Z,102773.09
2023-02-14T02:41:18.573Z,102759.59
2023-02-14T02:44:13.053Z,102764.88
2023-02-14T02:46:55.665Z,102758.44
2023-02-14T02:49:48.314Z,102758.44
2023-02-14T02:52:41.642Z,102761.75
2023-02-14T02:55:16.407Z,102760.13
2023-02-14T02:57:44.473Z,102753.31
2023-02-14T03:00:13.690Z,102752.72
2023-02-14T03:03:03.753Z,102755.47
2023-02-14T03:05:32.355Z,102753.69
2023-02-14T03:07:59.780Z,102752.00
2023-02-14T03:10:31.805Z,102755.34
2023-02-14T03:13:36.778Z,102757.28
2023-02-14T03:16:26.167Z,102750.13
2023-02-14T03:20:00.471Z,102751.91
2023-02-14T03:22:48.498Z,102758.72
2023-02-14T03:25:32.288Z,102746.78
2023-02-14T03:28:15.182Z,102748.22
2023-02-14T03:30:48.548Z,102739.03
2023-02-14T03:33:23.193Z,102746.56
2023-02-14T03:35:55.249Z,102752.41
2023-02-14T03:38:27.527Z,102752.63
2023-02-14T03:41:01.935Z,102760.69
2023-02-14T03:43:35.917Z,102768.44
2023-02-14T03:46:03.272Z,102751.66
2023-02-14T03:48:32.311Z,102755.47
2023-02-14T03:51:00.657Z,102755.00
2023-02-14T03:53:31.020Z,102767.16
2023-02-14T03:56:13.390Z,102763.66
2023-02-14T03:58:45.188Z,102759.44
2023-02-14T04:01:36.170Z,102753.31
2023-02-14T04:04:04.677Z,102758.44
2023-02-14T04:06:31.969Z,102753.66
2023-02-14T04:08:59.399Z,102754.03
2023-02-14T04:11:27.270Z,102759.88
2023-02-14T04:13:54.810Z,102759.28
2023-02-14T04:16:22.147Z,102758.78
2023-02-14T04:19:08.078Z,102755.97
2023-02-14T04:21:35.375Z,102766.69
2023-02-14T04:24:02.711Z,102759.06
2023-02-14T04:26:30.129Z,102762.13
2023-02-14T04:28:57.558Z,102763.81
2023-02-14T04:31:24.971Z,102760.59
2023-02-14T04:33:52.344Z,102768.22
2023-02-14T04:36:19.686Z,102761.69
2023-02-14T04:38:46.957Z,102762.72
2023-02-14T04:41:14.316Z,102765.47
2023-02-14T04:43:43.106Z,102758.94
2023-02-14T04:46:10.574Z,102749.75
2023-02-14T04:48:37.902Z,102758.78
2023-02-14T04:51:05.359Z,102762.97
2023-02-14T04:53:32.618Z,102763.53
2023-02-14T04:56:00.002Z,102762.72
2023-02-14T04:58:27.465Z,102761.41
2023-02-14T05:00:54.809Z,102761.69
2023-02-14T05:03:22.108Z,102770.88
2023-02-14T05:05:49.501Z,102764.84
2023-02-14T05:08:17.049Z,102771.25
2023-02-14T05:10:44.326Z,102772.47
2023-02-14T05:13:11.719Z,102765.91
2023-02-14T05:15:38.960Z,102766.63
2023-02-14T05:18:06.447Z,102759.38
2023-02-14T05:20:34.223Z,102763.53
2023-02-14T05:23:06.346Z,102759.94
2023-02-14T05:25:34.356Z,102764.81
2023-02-14T05:28:01.877Z,102760.66
2023-02-14T05:30:30.339Z,102768.13
2023-02-14T05:32:57.787Z,102766.56
2023-02-14T05:35:25.202Z,102760.28
2023-02-14T05:37:52.501Z,102763.41
2023-02-14T05:40:19.918Z,102753.31
2023-02-14T05:42:47.153Z,102752.72
2023-02-14T05:45:14.713Z,102747.25
2023-02-14T05:47:42.097Z,102739.50
2023-02-14T05:50:09.525Z,102748.88
2023-02-14T05:52:37.792Z,102751.28
2023-02-14T05:55:05.632Z,102757.31
2023-02-14T05:57:36.030Z,102757.06
2023-02-14T06:00:06.540Z,102753.75
2023-02-14T06:02:39.750Z,102755.59
2023-02-14T06:05:07.712Z,102754.84
2023-02-14T06:07:35.152Z,102753.00
2023-02-14T06:10:02.488Z,102763.81
2023-02-14T06:12:32.973Z,102760.63
2023-02-14T06:15:00.357Z,102759.19
2023-02-14T06:17:27.738Z,102766.16
2023-02-14T06:19:54.995Z,102755.91
2023-02-14T06:22:22.316Z,102757.41
2023-02-14T06:24:50.014Z,102755.91
2023-02-14T06:27:17.320Z,102758.56
2023-02-14T06:29:44.683Z,102748.22
2023-02-14T06:32:12.132Z,102745.84
2023-02-14T06:34:40.918Z,102743.50
2023-02-14T06:37:08.241Z,102748.19
2023-02-14T06:39:35.593Z,102750.47
2023-02-14T06:42:02.941Z,102752.44
2023-02-14T06:44:30.446Z,102751.53
2023-02-14T06:46:57.724Z,102757.22
2023-02-14T06:49:25.158Z,102746.84
2023-02-14T06:51:52.602Z,102749.34
2023-02-14T06:54:19.886Z,102752.34
2023-02-14T06:56:47.480Z,102755.25
2023-02-14T06:59:14.825Z,102752.75
2023-02-14T07:01:42.174Z,102754.59
2023-02-14T07:04:09.676Z,102754.66
2023-02-14T07:06:37.753Z,102756.53
2023-02-14T07:09:05.574Z,102762.00
2023-02-14T07:11:32.979Z,102768.59
2023-02-14T07:14:00.296Z,102767.66
2023-02-14T07:16:27.672Z,102771.59
2023-02-14T07:18:54.987Z,102770.47
2023-02-14T07:21:22.324Z,102771.97
2023-02-14T07:23:50.195Z,102767.53
2023-02-14T07:26:18.344Z,102770.13
2023-02-14T07:28:46.712Z,102780.34
2023-02-14T07:31:14.192Z,102781.94
2023-02-14T07:33:41.817Z,102775.75
2023-02-14T07:36:09.675Z,102767.41
2023-02-14T07:38:37.269Z,102768.38
2023-02-14T07:41:04.694Z,102773.84
2023-02-14T07:43:34.490Z,102771.47
2023-02-14T07:46:02.468Z,102770.16
2023-02-14T07:48:31.953Z,102767.91
2023-02-14T07:51:01.863Z,102767.13
2023-02-14T07:53:29.272Z,102760.97
2023-02-14T07:55:56.855Z,102759.88
2023-02-14T07:58:24.141Z,102761.63
2023-02-14T08:00:51.477Z,102767.84
2023-02-14T08:03:19.134Z,102758.47
2023-02-14T08:05:57.056Z,102765.47
2023-02-14T08:08:28.908Z,102756.19
2023-02-14T08:10:57.001Z,102752.97
2023-02-14T08:13:24.345Z,102758.34
2023-02-14T08:16:07.740Z,102760.03
2023-02-14T08:18:37.942Z,102751.19
2023-02-14T08:21:05.861Z,102753.56
2023-02-14T08:23:33.879Z,102749.66
2023-02-14T08:26:01.664Z,102754.78
2023-02-14T08:28:29.253Z,102753.94
2023-02-14T08:30:56.668Z,102753.72
2023-02-14T08:33:24.057Z,102754.19
2023-02-14T08:35:52.210Z,102753.09
2023-02-14T08:38:19.599Z,102760.94
2023-02-14T08:40:47.381Z,102766.44
2023-02-14T08:43:15.349Z,102764.78
2023-02-14T08:45:43.019Z,102761.56
2023-02-14T08:48:12.241Z,102767.63
2023-02-14T08:50:40.285Z,102767.06
2023-02-14T08:53:12.257Z,102776.44
2023-02-14T08:55:40.228Z,102778.94
2023-02-14T08:58:07.928Z,102772.41
2023-02-14T09:00:35.560Z,102775.69
2023-02-14T09:03:03.032Z,102756.50
2023-02-14T09:05:32.018Z,102754.47
2023-02-14T09:07:59.674Z,102741.81
2023-02-14T09:10:28.559Z,102746.50
2023-02-14T09:12:58.560Z,102737.94
2023-02-14T09:15:26.435Z,102739.53
2023-02-14T09:17:53.743Z,102739.69
2023-02-14T09:20:25.274Z,102744.00
2023-02-14T09:22:55.860Z,102743.91
2023-02-14T09:25:26.254Z,102750.28
2023-02-14T09:27:53.694Z,102746.72
2023-02-14T09:30:21.232Z,102740.81
2023-02-14T09:32:48.887Z,102740.72
2023-02-14T09:35:34.710Z,102743.28
2023-02-14T09:38:18.310Z,102748.19
2023-02-14T09:40:47.054Z,102744.28
2023-02-14T09:43:24.691Z,102743.59
2023-02-14T09:45:54.864Z,102743.56
2023-02-14T09:48:32.470Z,102746.47
2023-02-14T09:51:03.361Z,102735.75
2023-02-14T09:53:35.092Z,102730.81
2023-02-14T09:56:21.151Z,102731.31
2023-02-14T09:59:07.368Z,102731.91
2023-02-14T10:01:43.714Z,102729.53
2023-02-14T10:04:23.018Z,102732.94
2023-02-14T10:07:01.732Z,102740.66
2023-02-14T10:09:43.095Z,102733.28
2023-02-14T10:12:16.666Z,102736.63
2023-02-14T10:14:44.114Z,102731.97
2023-02-14T10:17:25.324Z,102730.00
2023-02-14T10:19:56.649Z,102723.53
2023-02-14T10:22:30.225Z,102729.81
2023-02-14T10:25:14.425Z,102725.75
2023-02-14T10:27:47.286Z,102726.81
2023-02-14T10:30:21.573Z,102719.81
2023-02-14T10:32:53.583Z,102721.00
2023-02-14T10:35:44.116Z,102720.16
2023-02-14T10:38:20.602Z,102717.66
2023-02-14T10:41:10.151Z,102711.91
2023-02-14T10:43:43.747Z,102714.56
2023-02-14T10:46:21.268Z,102713.03
2023-02-14T10:49:13.402Z,102715.38
2023-02-14T10:51:51.232Z,102708.06
2023-02-14T10:54:25.977Z,102713.19
2023-02-14T10:56:58.699Z,102703.81
2023-02-14T10:59:39.780Z,102703.84
2023-02-14T11:02:11.155Z,102698.66
2023-02-14T11:04:38.495Z,102695.53
2023-02-14T11:07:13.081Z,102688.94
2023-02-14T11:09:40.337Z,102684.44
2023-02-14T11:12:08.724Z,102680.81
2023-02-14T11:14:40.563Z,102685.53
2023-02-14T11:17:28.153Z,102674.97
2023-02-14T11:20:02.590Z,102668.44
2023-02-14T11:22:31.282Z,102662.16
2023-02-14T11:25:21.508Z,102662.50
2023-02-14T11:28:00.994Z,102658.06
2023-02-14T11:30:33.450Z,102652.59
2023-02-14T11:33:01.109Z,102654.97
2023-02-14T11:35:34.550Z,102646.97
2023-02-14T11:38:06.704Z,102647.50
2023-02-14T11:40:38.932Z,102639.78
2023-02-14T11:43:14.622Z,102640.06
2023-02-14T11:45:49.447Z,102643.41
2023-02-14T11:48:31.434Z,102634.56
2023-02-14T11:51:15.912Z,102628.00
2023-02-14T11:53:56.343Z,102621.72
2023-02-14T11:56:24.327Z,102619.56
2023-02-14T11:59:03.779Z,102617.91
2023-02-14T12:01:33.918Z,102606.69
2023-02-14T12:04:02.155Z,102611.06
2023-02-14T12:06:32.478Z,102607.72
2023-02-14T12:09:35.173Z,102606.34
2023-02-14T12:12:05.020Z,102595.94
2023-02-14T12:14:34.464Z,102589.31
2023-02-14T12:17:05.818Z,102586.59
2023-02-14T12:19:41.167Z,102582.16
2023-02-14T12:22:13.298Z,102579.69
2023-02-14T12:25:07.576Z,102575.59
2023-02-14T12:27:48.459Z,102573.66
2023-02-14T12:30:21.367Z,102565.38
2023-02-14T12:32:51.312Z,102563.66
2023-02-14T12:35:25.815Z,102562.84
2023-02-14T12:38:19.346Z,102561.50
2023-02-14T12:41:11.882Z,102552.66
2023-02-14T12:43:50.875Z,102542.72
2023-02-14T12:46:37.079Z,102538.88
2023-02-14T12:49:36.369Z,102534.44
2023-02-14T12:52:25.475Z,102532.78
2023-02-14T12:54:55.762Z,102528.09
2023-02-14T12:57:48.076Z,102525.88
2023-02-14T13:00:33.997Z,102523.13
2023-02-14T13:03:14.679Z,102512.59
2023-02-14T13:05:48.250Z,102503.72
2023-02-14T13:08:49.374Z,102497.84
2023-02-14T13:11:41.054Z,102497.50
2023-02-14T13:14:29.616Z,102499.25
2023-02-14T13:17:00.860Z,102495.00
2023-02-14T13:19:31.228Z,102484.00
2023-02-14T13:21:59.906Z,102489.84
2023-02-14T13:24:36.813Z,102485.19
2023-02-14T13:27:07.415Z,102480.41
2023-02-14T13:29:43.275Z,102475.28
2023-02-14T13:32:13.305Z,102473.78
2023-02-14T13:34:45.047Z,102469.91
2023-02-14T13:37:16.016Z,102466.31
2023-02-14T13:39:47.229Z,102461.13
2023-02-14T13:42:52.642Z,102457.78
2023-02-14T13:45:35.303Z,102462.41
2023-02-14T13:48:11.122Z,102460.81
2023-02-14T13:51:05.626Z,102459.84
2023-02-14T13:53:40.200Z,102456.88
2023-02-14T13:56:15.336Z,102448.03
2023-02-14T13:58:51.127Z,102437.75
2023-02-14T14:01:42.922Z,102441.19
2023-02-14T14:04:28.826Z,102431.69
2023-02-14T14:07:05.347Z,102425.94
2023-02-14T14:09:42.004Z,102427.78
2023-02-14T14:12:25.585Z,102430.59
2023-02-14T14:15:05.767Z,102417.44
2023-02-14T14:17:39.419Z,102419.81
2023-02-14T14:20:15.781Z,102414.84
2023-02-14T14:22:53.733Z,102422.84
2023-02-14T14:25:41.118Z,102414.44
2023-02-14T14:28:13.350Z,102412.34
2023-02-14T14:30:44.747Z,102402.94
2023-02-14T14:33:25.979Z,102410.75
2023-02-14T14:36:08.467Z,102411.06
2023-02-14T14:38:47.189Z,102398.03
2023-02-14T14:41:14.591Z,102395.31
2023-02-14T14:43:42.352Z,102391.91
2023-02-14T14:46:12.645Z,102391.44
2023-02-14T14:48:40.491Z,102397.59
2023-02-14T14:51:09.868Z,102396.63
2023-02-14T14:53:44.541Z,102388.28
2023-02-14T14:56:14.356Z,102383.75
2023-02-14T14:58:42.111Z,102383.78
2023-02-14T15:01:36.436Z,102382.53
2023-02-14T15:04:17.262Z,102389.47
2023-02-14T15:06:45.437Z,102378.81
2023-02-14T15:09:45.079Z,102377.13
2023-02-14T15:12:39.971Z,102381.50
2023-02-14T15:15:10.119Z,102376.94
2023-02-14T15:17:37.795Z,102382.16
2023-02-14T15:20:08.402Z,102383.78
2023-02-14T15:22:45.613Z,102372.34
2023-02-14T15:25:21.226Z,102373.03
2023-02-14T15:27:48.711Z,102376.63
2023-02-14T15:30:19.414Z,102375.94
2023-02-14T15:32:48.262Z,102367.84
2023-02-14T15:35:17.579Z,102365.63
2023-02-14T15:37:46.039Z,102353.09
2023-02-14T15:40:25.090Z,102356.63
2023-02-14T15:42:59.052Z,102352.84
2023-02-14T15:45:27.687Z,102346.13
2023-02-14T15:47:57.896Z,102345.88
2023-02-14T15:50:27.979Z,102346.41
2023-02-14T15:53:27.896Z,102339.19
2023-02-14T15:56:05.791Z,102339.03
2023-02-14T15:58:33.649Z,102341.28
2023-02-14T16:01:01.495Z,102340.94
2023-02-14T16:03:37.054Z,102337.34
2023-02-14T16:06:07.483Z,102337.13
2023-02-14T16:08:37.341Z,102338.69
2023-02-14T16:11:07.159Z,102330.66
2023-02-14T16:13:36.803Z,102324.25
2023-02-14T16:16:06.741Z,102324.78
2023-02-14T16:18:48.198Z,102324.19
2023-02-14T16:21:33.240Z,102321.72
2023-02-14T16:24:09.361Z,102320.66
2023-02-14T16:26:39.318Z,102315.59
2023-02-14T16:29:08.500Z,102317.50
2023-02-14T16:32:15.195Z,102319.03
2023-02-14T16:34:42.258Z,102311.09
2023-02-14T16:37:19.509Z,102318.13
2023-02-14T16:39:47.117Z,102322.50
2023-02-14T16:42:17.008Z,102316.69
2023-02-14T16:44:45.769Z,102316.66
2023-02-14T16:47:14.020Z,102314.66
2023-02-14T16:49:41.984Z,102315.13
2023-02-14T16:52:35.535Z,102310.56
2023-02-14T16:55:02.820Z,102310.34
2023-02-14T16:57:33.397Z,102312.25
2023-02-14T17:00:01.363Z,102319.75
2023-02-14T17:02:28.846Z,102315.06
2023-02-14T17:04:56.506Z,102307.66
2023-02-14T17:07:23.905Z,102312.13
2023-02-14T17:09:55.538Z,102315.72
2023-02-14T17:12:25.634Z,102309.97
2023-02-14T17:14:55.732Z,102314.09
2023-02-14T17:17:22.965Z,102318.03
2023-02-14T17:19:52.654Z,102323.72
2023-02-14T17:22:20.671Z,102321.03
2023-02-14T17:24:48.144Z,102322.16
2023-02-14T17:27:15.587Z,102315.13
2023-02-14T17:29:42.888Z,102320.00
2023-02-14T17:32:14.088Z,102315.19
2023-02-14T17:34:41.709Z,102319.44
2023-02-14T17:37:09.098Z,102317.47
2023-02-14T17:39:36.444Z,102308.69
2023-02-14T17:42:03.865Z,102310.59
2023-02-14T17:44:36.011Z,102302.44
2023-02-14T17:47:04.917Z,102298.34
2023-02-14T17:49:32.470Z,102304.47
2023-02-14T17:51:59.749Z,102303.13
2023-02-14T17:54:26.984Z,102299.66
2023-02-14T17:56:54.595Z,102300.75
2023-02-14T17:59:21.979Z,102300.88
2023-02-14T18:01:50.131Z,102308.47
2023-02-14T18:04:17.432Z,102306.78
2023-02-14T18:06:44.834Z,102302.66
2023-02-14T18:09:12.166Z,102306.06
2023-02-14T18:11:40.414Z,102304.78
2023-02-14T18:14:08.370Z,102303.09
2023-02-14T18:16:38.038Z,102306.81
2023-02-14T18:19:06.844Z,102297.34
2023-02-14T18:21:36.041Z,102300.94
2023-02-14T18:24:04.025Z,102303.09
2023-02-14T18:26:31.551Z,102311.34
2023-02-14T18:28:59.341Z,102305.41
2023-02-14T18:31:26.787Z,102297.69
2023-02-14T18:33:55.096Z,102298.28
2023-02-14T18:36:24.349Z,102300.34
2023-02-14T18:38:52.040Z,102302.03
2023-02-14T18:41:19.828Z,102295.59
2023-02-14T18:43:48.929Z,102295.81
2023-02-14T18:46:27.476Z,102294.81
2023-02-14T18:48:56.241Z,102298.16
2023-02-14T18:51:30.062Z,102298.22
2023-02-14T18:53:59.558Z,102299.16
2023-02-14T18:56:29.915Z,102304.13
2023-02-14T18:59:02.515Z,102295.22
2023-02-14T19:01:36.838Z,102301.25
2023-02-14T19:04:07.763Z,102297.47
2023-02-14T19:06:35.942Z,102306.00
2023-02-14T19:09:04.100Z,102299.41
2023-02-14T19:11:31.791Z,102300.69
2023-02-14T19:14:00.310Z,102302.34
2023-02-14T19:16:32.414Z,102295.44
2023-02-14T19:19:02.513Z,102293.94
2023-02-14T19:21:31.321Z,102297.50
2023-02-14T19:23:58.933Z,102299.47
2023-02-14T19:26:29.625Z,102295.91
2023-02-14T19:28:59.480Z,102291.50
2023-02-14T19:31:27.991Z,102288.78
2023-02-14T19:33:55.558Z,102283.19
2023-02-14T19:36:23.600Z,102277.13
2023-02-14T19:38:52.895Z,102269.94
2023-02-14T19:41:26.148Z,102280.38
2023-02-14T19:43:56.251Z,102276.81
2023-02-14T19:46:24.413Z,102268.72
2023-02-14T19:48:52.292Z,102260.97
2023-02-14T19:51:25.804Z,102271.63
2023-02-14T19:53:55.467Z,102275.84
2023-02-14T19:56:25.205Z,102271.19
2023-02-14T19:58:53.098Z,102268.72
2023-02-14T20:01:26.169Z,102268.66
2023-02-14T20:03:53.632Z,102259.78
2023-02-14T20:06:22.185Z,102261.44
2023-02-14T20:08:50.011Z,102262.28
2023-02-14T20:11:36.340Z,102261.78
2023-02-14T20:14:04.860Z,102257.06
2023-02-14T20:16:33.888Z,102256.81
2023-02-14T20:19:07.945Z,102252.66
2023-02-14T20:21:37.953Z,102254.47
2023-02-14T20:24:06.185Z,102244.50
2023-02-14T20:26:35.016Z,102246.41
2023-02-14T20:29:04.208Z,102254.25
2023-02-14T20:31:33.209Z,102252.66
2023-02-14T20:34:00.987Z,102240.97
2023-02-14T20:36:28.971Z,102242.84
2023-02-14T20:38:57.192Z,102238.47
2023-02-14T20:41:26.157Z,102224.91
2023-02-14T20:43:56.571Z,102244.66
2023-02-14T20:46:27.112Z,102240.75
2023-02-14T20:48:54.551Z,102245.44
2023-02-14T20:51:22.842Z,102243.56
2023-02-14T20:53:51.198Z,102232.78
2023-02-14T20:56:19.197Z,102239.66
2023-02-14T20:58:46.580Z,102236.66
2023-02-14T21:01:16.484Z,102234.19
2023-02-14T21:03:50.420Z,102237.00
2023-02-14T21:06:19.680Z,102230.16
2023-02-14T21:08:49.503Z,102226.59
2023-02-14T21:11:18.529Z,102231.81
2023-02-14T21:13:46.432Z,102237.63
2023-02-14T21:16:16.008Z,102232.34
2023-02-14T21:18:47.982Z,102231.56
2023-02-14T21:21:19.134Z,102224.69
2023-02-14T21:23:50.289Z,102229.91
2023-02-14T21:26:17.912Z,102229.09
2023-02-14T21:28:45.492Z,102224.47
2023-02-14T21:31:15.882Z,102226.09
2023-02-14T21:33:43.381Z,102214.59
2023-02-14T21:36:15.818Z,102216.75
2023-02-14T21:38:44.012Z,102218.97
2023-02-14T21:41:17.595Z,102222.28
2023-02-14T21:43:46.446Z,102216.22
2023-02-14T21:46:16.323Z,102224.22
2023-02-14T21:49:02.798Z,102223.41
2023-02-14T21:51:31.348Z,102224.50
2023-02-14T21:54:01.659Z,102216.25
2023-02-14T21:56:29.063Z,102209.09
2023-02-14T21:58:56.793Z,102210.19
2023-02-14T22:01:26.425Z,102210.47
2023-02-14T22:03:54.417Z,102210.75
2023-02-14T22:06:22.335Z,102204.16
2023-02-14T22:08:54.314Z,102201.91
2023-02-14T22:11:22.322Z,102207.72
2023-02-14T22:13:49.735Z,102206.06
2023-02-14T22:16:18.996Z,102198.34
2023-02-14T22:18:47.963Z,102200.25
2023-02-14T22:21:24.194Z,102198.91
2023-02-14T22:23:51.825Z,102207.19
2023-02-14T22:26:19.112Z,102204.41
2023-02-14T22:28:47.912Z,102206.03
2023-02-14T22:31:17.254Z,102203.53
2023-02-14T22:33:45.131Z,102200.50
2023-02-14T22:36:12.793Z,102205.72
2023-02-14T22:38:40.655Z,102196.09
2023-02-14T22:41:12.188Z,102197.69
2023-02-14T22:43:40.094Z,102197.97
2023-02-14T22:46:09.827Z,102192.19
2023-02-14T22:48:38.126Z,102203.44
2023-02-14T22:51:08.504Z,102188.59
2023-02-14T22:53:36.000Z,102193.50
2023-02-14T22:56:20.727Z,102192.47
2023-02-14T22:58:48.591Z,102192.44
2023-02-14T23:01:17.519Z,102189.69
2023-02-14T23:03:45.471Z,102179.16
2023-02-14T23:06:13.729Z,102183.81
2023-02-14T23:08:43.005Z,102188.25
2023-02-14T23:11:12.830Z,102189.56
2023-02-14T23:13:59.272Z,102181.59
2023-02-14T23:16:46.006Z,102187.34
2023-02-14T23:19:34.080Z,102196.47
2023-02-14T23:22:05.168Z,102204.94
2023-02-14T23:24:32.525Z,102204.84
2023-02-14T23:27:00.099Z,102204.22
2023-02-14T23:29:27.452Z,102205.41
2023-02-14T23:31:55.307Z,102204.94
2023-02-14T23:34:26.629Z,102204.94
2023-02-14T23:36:53.969Z,102202.34
2023-02-14T23:39:21.336Z,102204.97
2023-02-14T23:41:48.686Z,102199.81
2023-02-14T23:44:19.877Z,102200.00
2023-02-14T23:46:49.097Z,102199.22
2023-02-14T23:49:17.028Z,102195.41
2023-02-14T23:51:45.725Z,102205.84
2023-02-14T23:54:13.586Z,102199.22
2023-02-14T23:56:41.179Z,102197.06
2023-02-14T23:59:09.345Z,102190.91
